EDT,Max TemperatureF,Mean TemperatureF,Min TemperatureF,Max Dew PointF,MeanDew PointF,Min DewpointF,Max Humidity, Mean Humidity, Min Humidity, Max Sea Level PressureIn, Mean Sea Level PressureIn, Min Sea Level PressureIn, Max VisibilityMiles, Mean VisibilityMiles, Min VisibilityMiles, Max Wind SpeedMPH, Mean Wind SpeedMPH, Max Gust SpeedMPH,PrecipitationIn, CloudCover, Events, WindDirDegrees
2012-10-1,69,58,48,52,47,45,86,69,49,29.96,29.82,29.75,10,10,10,10,6,18,0.00,1,,225
2012-10-2,69,62,55,59,56,52,93,86,65,30.05,30.02,29.96,10,6,1,8,1,,0.91,7,Rain,36
2012-10-3,70,64,60,65,62,57,100,92,81,30.13,30.07,30.02,10,3,1,6,4,,0.01,8,Rain,5
2012-10-4,69,65,62,64,63,62,100,93,84,30.15,30.09,30.04,10,4,0,10,2,,0.22,7,Fog-Rain,22
2012-10-5,78,68,57,63,58,52,100,80,42,30.05,30.00,29.92,10,6,0,7,1,,0.00,2,Fog,214
2012-10-6,77,65,55,60,55,42,96,75,54,29.96,29.84,29.72,10,7,2,18,4,29,0.00,1,,227
2012-10-7,55,50,45,46,41,36,89,70,55,30.10,30.05,29.98,10,10,9,7,2,,0.12,4,Rain,207
2012-10-8,55,48,42,46,41,38,93,77,55,30.29,30.21,30.10,10,9,2,8,1,,0.00,3,,360
2012-10-9,57,52,48,50,46,44,87,78,69,30.27,30.20,30.12,10,10,9,10,6,,0.00,7,,9
2012-10-10,64,57,50,58,50,38,94,84,57,30.12,29.92,29.76,10,6,1,17,4,25,0.25,7,Rain,346
2012-10-11,60,52,44,38,35,29,76,56,33,30.15,30.08,29.91,10,10,10,15,5,22,0.00,0,,256
2012-10-12,55,48,41,38,31,20,74,55,37,30.41,30.17,30.04,10,10,10,15,6,,0.03,1,Rain,282
2012-10-13,54,40,28,34,27,18,100,67,25,30.51,30.44,30.30,10,7,0,9,1,,0.00,1,Fog,187
2012-10-14,66,57,48,56,48,36,80,69,54,30.30,30.11,29.96,10,10,10,15,6,23,0.01,4,Rain,187
2012-10-15,73,66,60,63,59,55,94,79,61,29.93,29.73,29.63,10,9,2,16,9,24,0.31,5,Rain,188
2012-10-16,61,54,46,57,39,32,90,59,40,29.91,29.74,29.63,10,10,9,17,6,28,0.00,3,Rain,330
2012-10-17,60,48,35,44,36,30,93,74,36,30.01,29.97,29.92,10,9,2,4,1,,0.00,0,,112
2012-10-18,66,52,39,53,42,37,96,83,45,30.09,30.04,30.01,10,5,0,12,1,17,0.00,2,Fog,157
2012-10-19,69,62,57,64,60,52,94,89,78,30.02,29.85,29.70,10,6,2,14,4,23,0.58,8,Rain,131
2012-10-20,75,65,55,64,56,38,100,77,39,29.80,29.68,29.62,10,7,0,9,4,23,0.00,5,Fog-Rain,207
2012-10-21,64,54,45,43,39,35,86,55,35,29.95,29.89,29.81,10,10,10,14,5,29,0.00,1,,254
2012-10-22,66,56,46,41,39,37,77,51,38,30.04,29.99,29.95,10,10,10,14,6,24,0.00,1,,284
2012-10-23,61,52,45,53,47,41,93,80,51,30.13,30.09,30.05,10,10,4,5,0,,0.11,4,Rain,125
2012-10-24,57,54,51,53,46,39,94,74,55,30.22,30.16,30.12,10,9,4,7,3,,0.00,8,Rain,11
2012-10-25,62,56,50,47,44,39,83,66,44,30.30,30.26,30.22,10,10,10,8,1,,0.00,8,,190
2012-10-26,66,60,53,54,52,48,86,74,61,30.25,30.19,30.12,10,10,10,6,1,,0.00,8,,250
2012-10-27,64,60,57,54,53,52,83,76,67,30.12,30.03,29.97,10,9,7,9,3,,0.00,6,,11
2012-10-28,59,55,51,50,46,39,86,71,57,29.96,29.87,29.71,10,10,10,16,9,24,0.00,6,,18
2012-10-29,66,58,51,62,52,47,89,85,78,29.71,29.33,28.94,10,6,1,30,16,50,0.45,8,Rain,28
2012-10-30,69,58,55,53,52,51,87,75,67,29.50,29.49,29.48,10,10,9,13,7,,0.00,6,Rain,145
2012-10-31,57,52,46,54,44,36,94,74,57,29.57,29.51,29.45,10,10,3,14,5,20,0.04,8,Rain,197